sensor_id;sensor_type;location;lat;lon;timestamp;P1;durP1;ratioP1;P2;durP2;ratioP2
53879;SDS011;39791;53.184;5.486;2023-06-22T00:01:53;58.05;;;51.80;;
53879;SDS011;39791;53.184;5.486;2023-06-22T00:04:19;61.55;;;54.88;;
53879;SDS011;39791;53.184;5.486;2023-06-22T00:06:44;57.63;;;51.17;;
53879;SDS011;39791;53.184;5.486;2023-06-22T00:09:10;52.10;;;46.88;;
53879;SDS011;39791;53.184;5.486;2023-06-22T00:11:36;76.93;;;43.10;;
53879;SDS011;39791;53.184;5.486;2023-06-22T00:14:02;48.10;;;43.03;;
53879;SDS011;39791;53.184;5.486;2023-06-22T00:16:28;51.30;;;46.25;;
53879;SDS011;39791;53.184;5.486;2023-06-22T00:18:53;57.03;;;50.65;;
53879;SDS011;39791;53.184;5.486;2023-06-22T00:21:19;53.92;;;48.50;;
53879;SDS011;39791;53.184;5.486;2023-06-22T00:23:45;57.17;;;51.47;;
53879;SDS011;39791;53.184;5.486;2023-06-22T00:26:12;54.17;;;48.60;;
53879;SDS011;39791;53.184;5.486;2023-06-22T00:28:38;55.88;;;49.97;;
53879;SDS011;39791;53.184;5.486;2023-06-22T00:31:04;54.13;;;48.60;;
53879;SDS011;39791;53.184;5.486;2023-06-22T00:33:29;53.85;;;48.17;;
53879;SDS011;39791;53.184;5.486;2023-06-22T00:35:56;56.65;;;50.75;;
53879;SDS011;39791;53.184;5.486;2023-06-22T00:38:22;61.00;;;54.35;;
53879;SDS011;39791;53.184;5.486;2023-06-22T00:40:47;57.78;;;51.47;;
53879;SDS011;39791;53.184;5.486;2023-06-22T00:43:13;56.47;;;50.38;;
53879;SDS011;39791;53.184;5.486;2023-06-22T00:45:38;62.58;;;54.38;;
53879;SDS011;39791;53.184;5.486;2023-06-22T00:48:04;64.57;;;53.15;;
53879;SDS011;39791;53.184;5.486;2023-06-22T00:50:31;63.05;;;56.55;;
53879;SDS011;39791;53.184;5.486;2023-06-22T00:52:59;60.38;;;53.95;;
53879;SDS011;39791;53.184;5.486;2023-06-22T00:55:42;59.65;;;53.28;;
53879;SDS011;39791;53.184;5.486;2023-06-22T00:58:10;56.47;;;45.72;;
53879;SDS011;39791;53.184;5.486;2023-06-22T01:00:37;63.42;;;56.15;;
53879;SDS011;39791;53.184;5.486;2023-06-22T01:03:03;65.10;;;57.25;;
53879;SDS011;39791;53.184;5.486;2023-06-22T01:05:29;65.15;;;58.25;;
53879;SDS011;39791;53.184;5.486;2023-06-22T01:10:38;64.45;;;57.53;;
53879;SDS011;39791;53.184;5.486;2023-06-22T01:16:03;63.78;;;54.40;;
53879;SDS011;39791;53.184;5.486;2023-06-22T01:18:47;65.75;;;56.85;;
53879;SDS011;39791;53.184;5.486;2023-06-22T01:21:16;65.60;;;55.72;;
53879;SDS011;39791;53.184;5.486;2023-06-22T01:23:50;75.57;;;59.67;;
53879;SDS011;39791;53.184;5.486;2023-06-22T01:26:42;82.65;;;65.03;;
53879;SDS011;39791;53.184;5.486;2023-06-22T01:29:19;83.35;;;66.82;;
53879;SDS011;39791;53.184;5.486;2023-06-22T01:31:47;75.45;;;66.93;;
53879;SDS011;39791;53.184;5.486;2023-06-22T01:34:15;80.97;;;64.85;;
53879;SDS011;39791;53.184;5.486;2023-06-22T01:36:42;76.30;;;66.80;;
53879;SDS011;39791;53.184;5.486;2023-06-22T01:39:08;86.50;;;67.90;;
53879;SDS011;39791;53.184;5.486;2023-06-22T01:41:36;78.35;;;66.97;;
53879;SDS011;39791;53.184;5.486;2023-06-22T01:44:04;73.70;;;64.28;;
53879;SDS011;39791;53.184;5.486;2023-06-22T01:46:32;71.60;;;63.88;;
53879;SDS011;39791;53.184;5.486;2023-06-22T01:48:59;81.57;;;64.97;;
53879;SDS011;39791;53.184;5.486;2023-06-22T01:51:26;74.25;;;64.90;;
53879;SDS011;39791;53.184;5.486;2023-06-22T01:53:51;84.78;;;67.10;;
53879;SDS011;39791;53.184;5.486;2023-06-22T01:56:17;91.15;;;70.70;;
53879;SDS011;39791;53.184;5.486;2023-06-22T01:59:26;115.53;;;74.80;;
53879;SDS011;39791;53.184;5.486;2023-06-22T02:01:42;119.93;;;76.40;;
53879;SDS011;39791;53.184;5.486;2023-06-22T02:04:14;274.47;;;78.43;;
53879;SDS011;39791;53.184;5.486;2023-06-22T02:06:47;374.58;;;85.72;;
53879;SDS011;39791;53.184;5.486;2023-06-22T02:09:17;227.10;;;74.32;;
53879;SDS011;39791;53.184;5.486;2023-06-22T02:11:45;367.25;;;80.18;;
53879;SDS011;39791;53.184;5.486;2023-06-22T02:14:13;276.50;;;80.78;;
53879;SDS011;39791;53.184;5.486;2023-06-22T02:16:40;190.23;;;72.95;;
53879;SDS011;39791;53.184;5.486;2023-06-22T02:19:06;235.80;;;72.53;;
53879;SDS011;39791;53.184;5.486;2023-06-22T02:21:33;180.43;;;76.00;;
53879;SDS011;39791;53.184;5.486;2023-06-22T02:23:59;298.60;;;73.78;;
53879;SDS011;39791;53.184;5.486;2023-06-22T02:26:25;194.20;;;71.57;;
53879;SDS011;39791;53.184;5.486;2023-06-22T02:28:51;175.65;;;74.72;;
53879;SDS011;39791;53.184;5.486;2023-06-22T02:31:17;125.57;;;77.53;;
53879;SDS011;39791;53.184;5.486;2023-06-22T02:33:43;124.57;;;75.18;;
53879;SDS011;39791;53.184;5.486;2023-06-22T02:36:09;137.40;;;81.32;;
53879;SDS011;39791;53.184;5.486;2023-06-22T02:38:38;117.38;;;78.90;;
53879;SDS011;39791;53.184;5.486;2023-06-22T02:41:13;120.77;;;79.57;;
53879;SDS011;39791;53.184;5.486;2023-06-22T02:43:43;111.60;;;79.95;;
53879;SDS011;39791;53.184;5.486;2023-06-22T02:46:12;109.65;;;78.70;;
53879;SDS011;39791;53.184;5.486;2023-06-22T02:48:41;103.57;;;76.93;;
53879;SDS011;39791;53.184;5.486;2023-06-22T02:51:07;101.90;;;78.85;;
53879;SDS011;39791;53.184;5.486;2023-06-22T02:53:33;100.00;;;75.82;;
53879;SDS011;39791;53.184;5.486;2023-06-22T02:55:59;97.60;;;74.10;;
53879;SDS011;39791;53.184;5.486;2023-06-22T02:58:26;97.38;;;74.78;;
53879;SDS011;39791;53.184;5.486;2023-06-22T03:00:52;104.75;;;75.53;;
53879;SDS011;39791;53.184;5.486;2023-06-22T03:03:18;109.18;;;78.03;;
53879;SDS011;39791;53.184;5.486;2023-06-22T03:05:44;93.95;;;75.13;;
53879;SDS011;39791;53.184;5.486;2023-06-22T03:08:10;104.22;;;74.70;;
53879;SDS011;39791;53.184;5.486;2023-06-22T03:10:35;96.03;;;71.85;;
53879;SDS011;39791;53.184;5.486;2023-06-22T03:13:01;94.40;;;71.65;;
53879;SDS011;39791;53.184;5.486;2023-06-22T03:15:26;97.10;;;73.25;;
53879;SDS011;39791;53.184;5.486;2023-06-22T03:17:54;166.70;;;82.32;;
53879;SDS011;39791;53.184;5.486;2023-06-22T03:20:20;121.53;;;79.18;;
53879;SDS011;39791;53.184;5.486;2023-06-22T03:22:46;97.15;;;71.60;;
53879;SDS011;39791;53.184;5.486;2023-06-22T03:25:13;236.77;;;83.63;;
53879;SDS011;39791;53.184;5.486;2023-06-22T03:27:39;198.38;;;79.95;;
53879;SDS011;39791;53.184;5.486;2023-06-22T03:30:06;290.15;;;81.88;;
53879;SDS011;39791;53.184;5.486;2023-06-22T03:32:33;238.82;;;82.65;;
53879;SDS011;39791;53.184;5.486;2023-06-22T03:34:59;123.13;;;80.47;;
53879;SDS011;39791;53.184;5.486;2023-06-22T03:37:25;152.75;;;80.47;;
53879;SDS011;39791;53.184;5.486;2023-06-22T03:39:51;189.85;;;78.40;;
53879;SDS011;39791;53.184;5.486;2023-06-22T03:42:17;156.35;;;80.10;;
53879;SDS011;39791;53.184;5.486;2023-06-22T03:44:43;122.97;;;76.68;;
53879;SDS011;39791;53.184;5.486;2023-06-22T03:47:09;123.10;;;76.93;;
53879;SDS011;39791;53.184;5.486;2023-06-22T03:49:34;104.10;;;72.38;;
53879;SDS011;39791;53.184;5.486;2023-06-22T03:52:01;101.50;;;72.35;;
53879;SDS011;39791;53.184;5.486;2023-06-22T03:54:28;85.18;;;68.18;;
53879;SDS011;39791;53.184;5.486;2023-06-22T03:56:54;88.00;;;67.28;;
53879;SDS011;39791;53.184;5.486;2023-06-22T03:59:21;90.88;;;72.88;;
53879;SDS011;39791;53.184;5.486;2023-06-22T04:01:46;79.43;;;63.33;;
53879;SDS011;39791;53.184;5.486;2023-06-22T04:04:12;77.65;;;65.90;;
53879;SDS011;39791;53.184;5.486;2023-06-22T04:06:37;79.88;;;65.30;;
53879;SDS011;39791;53.184;5.486;2023-06-22T04:09:03;70.90;;;61.00;;
53879;SDS011;39791;53.184;5.486;2023-06-22T04:11:30;76.22;;;64.10;;
53879;SDS011;39791;53.184;5.486;2023-06-22T04:13:56;77.28;;;61.22;;
53879;SDS011;39791;53.184;5.486;2023-06-22T04:16:21;71.32;;;63.15;;
53879;SDS011;39791;53.184;5.486;2023-06-22T04:18:47;73.47;;;59.72;;
53879;SDS011;39791;53.184;5.486;2023-06-22T04:21:13;71.78;;;59.50;;
53879;SDS011;39791;53.184;5.486;2023-06-22T04:23:38;72.45;;;58.05;;
53879;SDS011;39791;53.184;5.486;2023-06-22T04:26:04;70.47;;;62.15;;
53879;SDS011;39791;53.184;5.486;2023-06-22T04:28:30;67.43;;;59.13;;
53879;SDS011;39791;53.184;5.486;2023-06-22T04:31:00;69.00;;;58.10;;
53879;SDS011;39791;53.184;5.486;2023-06-22T04:33:27;76.70;;;60.90;;
53879;SDS011;39791;53.184;5.486;2023-06-22T04:35:54;69.13;;;60.05;;
53879;SDS011;39791;53.184;5.486;2023-06-22T04:38:22;68.03;;;60.60;;
53879;SDS011;39791;53.184;5.486;2023-06-22T04:40:47;71.07;;;61.03;;
53879;SDS011;39791;53.184;5.486;2023-06-22T04:43:13;71.68;;;60.80;;
53879;SDS011;39791;53.184;5.486;2023-06-22T04:45:39;75.15;;;61.58;;
53879;SDS011;39791;53.184;5.486;2023-06-22T04:48:05;73.03;;;62.78;;
53879;SDS011;39791;53.184;5.486;2023-06-22T04:50:30;73.65;;;64.05;;
53879;SDS011;39791;53.184;5.486;2023-06-22T04:52:56;76.63;;;65.32;;
53879;SDS011;39791;53.184;5.486;2023-06-22T04:55:23;78.38;;;66.03;;
53879;SDS011;39791;53.184;5.486;2023-06-22T04:57:50;73.43;;;64.13;;
53879;SDS011;39791;53.184;5.486;2023-06-22T05:00:23;81.03;;;65.20;;
53879;SDS011;39791;53.184;5.486;2023-06-22T05:02:51;74.35;;;62.08;;
53879;SDS011;39791;53.184;5.486;2023-06-22T05:05:17;73.13;;;63.83;;
53879;SDS011;39791;53.184;5.486;2023-06-22T05:07:43;73.50;;;65.40;;
53879;SDS011;39791;53.184;5.486;2023-06-22T05:10:10;72.75;;;64.78;;
53879;SDS011;39791;53.184;5.486;2023-06-22T05:12:37;82.97;;;64.80;;
53879;SDS011;39791;53.184;5.486;2023-06-22T05:15:03;72.47;;;62.60;;
53879;SDS011;39791;53.184;5.486;2023-06-22T05:17:33;76.10;;;65.18;;
53879;SDS011;39791;53.184;5.486;2023-06-22T05:19:59;75.72;;;66.32;;
53879;SDS011;39791;53.184;5.486;2023-06-22T05:22:24;76.93;;;63.60;;
53879;SDS011;39791;53.184;5.486;2023-06-22T05:24:50;75.05;;;65.32;;
53879;SDS011;39791;53.184;5.486;2023-06-22T05:27:15;77.18;;;63.25;;
53879;SDS011;39791;53.184;5.486;2023-06-22T05:29:41;75.72;;;63.85;;
53879;SDS011;39791;53.184;5.486;2023-06-22T05:32:10;71.10;;;63.25;;
53879;SDS011;39791;53.184;5.486;2023-06-22T05:34:35;71.78;;;63.30;;
53879;SDS011;39791;53.184;5.486;2023-06-22T05:37:01;70.85;;;63.15;;
53879;SDS011;39791;53.184;5.486;2023-06-22T05:39:27;70.85;;;63.25;;
53879;SDS011;39791;53.184;5.486;2023-06-22T05:41:53;67.75;;;60.33;;
53879;SDS011;39791;53.184;5.486;2023-06-22T05:44:19;67.75;;;60.53;;
53879;SDS011;39791;53.184;5.486;2023-06-22T05:46:44;68.40;;;61.40;;
53879;SDS011;39791;53.184;5.486;2023-06-22T05:49:11;67.93;;;60.40;;
53879;SDS011;39791;53.184;5.486;2023-06-22T05:51:37;65.72;;;58.63;;
53879;SDS011;39791;53.184;5.486;2023-06-22T05:54:03;63.58;;;56.80;;
53879;SDS011;39791;53.184;5.486;2023-06-22T05:56:29;66.38;;;58.47;;
53879;SDS011;39791;53.184;5.486;2023-06-22T05:58:54;65.38;;;58.28;;
53879;SDS011;39791;53.184;5.486;2023-06-22T06:01:20;62.97;;;55.70;;
53879;SDS011;39791;53.184;5.486;2023-06-22T06:03:46;62.35;;;55.47;;
53879;SDS011;39791;53.184;5.486;2023-06-22T06:06:12;60.90;;;54.75;;
53879;SDS011;39791;53.184;5.486;2023-06-22T06:08:38;59.15;;;53.42;;
53879;SDS011;39791;53.184;5.486;2023-06-22T06:11:04;59.42;;;53.50;;
53879;SDS011;39791;53.184;5.486;2023-06-22T06:13:29;56.65;;;50.85;;
53879;SDS011;39791;53.184;5.486;2023-06-22T06:15:55;58.33;;;52.65;;
53879;SDS011;39791;53.184;5.486;2023-06-22T06:18:22;59.20;;;53.40;;
53879;SDS011;39791;53.184;5.486;2023-06-22T06:20:48;58.33;;;52.72;;
53879;SDS011;39791;53.184;5.486;2023-06-22T06:23:13;58.17;;;52.67;;
53879;SDS011;39791;53.184;5.486;2023-06-22T06:25:39;55.53;;;50.22;;
53879;SDS011;39791;53.184;5.486;2023-06-22T06:28:05;54.70;;;49.60;;
53879;SDS011;39791;53.184;5.486;2023-06-22T06:30:30;54.13;;;48.88;;
53879;SDS011;39791;53.184;5.486;2023-06-22T06:32:56;56.88;;;51.50;;
53879;SDS011;39791;53.184;5.486;2023-06-22T06:35:22;54.28;;;49.28;;
53879;SDS011;39791;53.184;5.486;2023-06-22T06:37:48;52.80;;;47.70;;
53879;SDS011;39791;53.184;5.486;2023-06-22T06:40:15;50.53;;;45.28;;
53879;SDS011;39791;53.184;5.486;2023-06-22T06:42:42;51.42;;;46.35;;
53879;SDS011;39791;53.184;5.486;2023-06-22T06:45:15;48.97;;;44.38;;
53879;SDS011;39791;53.184;5.486;2023-06-22T06:47:43;46.53;;;42.05;;
53879;SDS011;39791;53.184;5.486;2023-06-22T06:50:09;46.35;;;42.15;;
53879;SDS011;39791;53.184;5.486;2023-06-22T06:52:35;43.67;;;39.58;;
53879;SDS011;39791;53.184;5.486;2023-06-22T06:55:01;44.15;;;39.75;;
53879;SDS011;39791;53.184;5.486;2023-06-22T06:57:29;45.78;;;41.38;;
53879;SDS011;39791;53.184;5.486;2023-06-22T06:59:58;43.17;;;39.13;;
53879;SDS011;39791;53.184;5.486;2023-06-22T07:02:23;45.47;;;41.25;;
53879;SDS011;39791;53.184;5.486;2023-06-22T07:04:51;44.10;;;40.00;;
53879;SDS011;39791;53.184;5.486;2023-06-22T07:07:16;46.28;;;41.83;;
53879;SDS011;39791;53.184;5.486;2023-06-22T07:09:42;43.88;;;39.90;;
53879;SDS011;39791;53.184;5.486;2023-06-22T07:12:07;49.15;;;43.97;;
53879;SDS011;39791;53.184;5.486;2023-06-22T07:14:33;44.17;;;39.97;;
53879;SDS011;39791;53.184;5.486;2023-06-22T07:16:59;43.88;;;39.78;;
53879;SDS011;39791;53.184;5.486;2023-06-22T07:19:25;41.75;;;37.80;;
53879;SDS011;39791;53.184;5.486;2023-06-22T07:21:51;42.10;;;38.33;;
53879;SDS011;39791;53.184;5.486;2023-06-22T07:24:18;40.33;;;36.53;;
53879;SDS011;39791;53.184;5.486;2023-06-22T07:26:45;42.25;;;38.25;;
53879;SDS011;39791;53.184;5.486;2023-06-22T07:29:13;39.80;;;36.10;;
53879;SDS011;39791;53.184;5.486;2023-06-22T07:31:39;43.08;;;38.10;;
53879;SDS011;39791;53.184;5.486;2023-06-22T07:34:06;40.65;;;36.97;;
53879;SDS011;39791;53.184;5.486;2023-06-22T07:36:31;38.15;;;34.75;;
53879;SDS011;39791;53.184;5.486;2023-06-22T07:38:57;37.55;;;34.40;;
53879;SDS011;39791;53.184;5.486;2023-06-22T07:41:22;37.85;;;34.33;;
53879;SDS011;39791;53.184;5.486;2023-06-22T07:43:48;38.83;;;35.20;;
53879;SDS011;39791;53.184;5.486;2023-06-22T07:46:14;38.03;;;34.63;;
53879;SDS011;39791;53.184;5.486;2023-06-22T07:48:40;36.13;;;32.97;;
53879;SDS011;39791;53.184;5.486;2023-06-22T07:51:07;38.90;;;35.50;;
53879;SDS011;39791;53.184;5.486;2023-06-22T07:53:32;36.53;;;33.33;;
53879;SDS011;39791;53.184;5.486;2023-06-22T07:55:58;32.10;;;29.20;;
53879;SDS011;39791;53.184;5.486;2023-06-22T07:58:23;30.42;;;27.45;;
53879;SDS011;39791;53.184;5.486;2023-06-22T08:00:49;33.40;;;30.55;;
53879;SDS011;39791;53.184;5.486;2023-06-22T08:03:15;27.15;;;24.85;;
53879;SDS011;39791;53.184;5.486;2023-06-22T08:05:40;33.13;;;30.33;;
53879;SDS011;39791;53.184;5.486;2023-06-22T08:08:06;28.80;;;26.17;;
53879;SDS011;39791;53.184;5.486;2023-06-22T08:10:32;24.73;;;22.73;;
53879;SDS011;39791;53.184;5.486;2023-06-22T08:12:57;25.75;;;23.48;;
53879;SDS011;39791;53.184;5.486;2023-06-22T08:15:23;26.73;;;24.23;;
53879;SDS011;39791;53.184;5.486;2023-06-22T08:17:50;23.05;;;21.05;;
53879;SDS011;39791;53.184;5.486;2023-06-22T08:20:17;21.95;;;20.15;;
53879;SDS011;39791;53.184;5.486;2023-06-22T08:22:43;19.30;;;17.60;;
53879;SDS011;39791;53.184;5.486;2023-06-22T08:25:09;23.58;;;21.52;;
53879;SDS011;39791;53.184;5.486;2023-06-22T08:27:36;23.33;;;21.23;;
53879;SDS011;39791;53.184;5.486;2023-06-22T08:30:02;19.08;;;17.38;;
53879;SDS011;39791;53.184;5.486;2023-06-22T08:32:28;23.40;;;21.10;;
53879;SDS011;39791;53.184;5.486;2023-06-22T08:34:54;24.75;;;22.67;;
53879;SDS011;39791;53.184;5.486;2023-06-22T08:37:20;26.05;;;23.85;;
53879;SDS011;39791;53.184;5.486;2023-06-22T08:39:48;27.58;;;24.98;;
53879;SDS011;39791;53.184;5.486;2023-06-22T08:42:15;29.27;;;26.98;;
53879;SDS011;39791;53.184;5.486;2023-06-22T08:44:41;27.17;;;25.00;;
53879;SDS011;39791;53.184;5.486;2023-06-22T08:47:06;38.97;;;35.97;;
53879;SDS011;39791;53.184;5.486;2023-06-22T08:49:32;45.25;;;41.72;;
53879;SDS011;39791;53.184;5.486;2023-06-22T08:51:57;50.33;;;46.30;;
53879;SDS011;39791;53.184;5.486;2023-06-22T08:54:23;54.42;;;50.05;;
53879;SDS011;39791;53.184;5.486;2023-06-22T08:56:48;49.40;;;45.17;;
53879;SDS011;39791;53.184;5.486;2023-06-22T08:59:14;50.88;;;46.88;;
53879;SDS011;39791;53.184;5.486;2023-06-22T09:01:40;48.75;;;44.88;;
53879;SDS011;39791;53.184;5.486;2023-06-22T09:04:05;41.45;;;37.95;;
53879;SDS011;39791;53.184;5.486;2023-06-22T09:06:34;30.92;;;28.52;;
53879;SDS011;39791;53.184;5.486;2023-06-22T09:08:59;35.53;;;32.78;;
53879;SDS011;39791;53.184;5.486;2023-06-22T09:11:25;36.00;;;33.10;;
53879;SDS011;39791;53.184;5.486;2023-06-22T09:13:50;26.25;;;24.15;;
53879;SDS011;39791;53.184;5.486;2023-06-22T09:16:18;34.10;;;31.25;;
53879;SDS011;39791;53.184;5.486;2023-06-22T09:18:46;27.58;;;25.20;;
53879;SDS011;39791;53.184;5.486;2023-06-22T09:21:12;24.05;;;21.95;;
53879;SDS011;39791;53.184;5.486;2023-06-22T09:23:38;15.77;;;14.13;;
53879;SDS011;39791;53.184;5.486;2023-06-22T09:26:03;15.73;;;14.13;;
53879;SDS011;39791;53.184;5.486;2023-06-22T09:28:30;17.77;;;16.02;;
53879;SDS011;39791;53.184;5.486;2023-06-22T09:30:55;16.92;;;15.13;;
53879;SDS011;39791;53.184;5.486;2023-06-22T09:33:24;15.90;;;14.40;;
53879;SDS011;39791;53.184;5.486;2023-06-22T09:35:51;12.25;;;10.68;;
53879;SDS011;39791;53.184;5.486;2023-06-22T09:38:17;10.90;;;9.27;;
53879;SDS011;39791;53.184;5.486;2023-06-22T09:40:42;10.45;;;8.77;;
53879;SDS011;39791;53.184;5.486;2023-06-22T09:43:08;9.13;;;7.50;;
53879;SDS011;39791;53.184;5.486;2023-06-22T09:45:34;11.65;;;7.20;;
53879;SDS011;39791;53.184;5.486;2023-06-22T09:47:59;11.07;;;7.50;;
53879;SDS011;39791;53.184;5.486;2023-06-22T09:50:25;9.40;;;8.40;;
53879;SDS011;39791;53.184;5.486;2023-06-22T09:52:50;8.20;;;6.30;;
53879;SDS011;39791;53.184;5.486;2023-06-22T09:55:20;8.13;;;5.50;;
53879;SDS011;39791;53.184;5.486;2023-06-22T09:57:45;7.70;;;5.90;;
53879;SDS011;39791;53.184;5.486;2023-06-22T10:00:11;9.27;;;7.40;;
53879;SDS011;39791;53.184;5.486;2023-06-22T10:02:39;10.07;;;8.88;;
53879;SDS011;39791;53.184;5.486;2023-06-22T10:05:05;10.05;;;7.88;;
53879;SDS011;39791;53.184;5.486;2023-06-22T10:07:30;12.65;;;7.93;;
53879;SDS011;39791;53.184;5.486;2023-06-22T10:09:56;17.33;;;8.70;;
53879;SDS011;39791;53.184;5.486;2023-06-22T10:12:21;9.55;;;8.05;;
53879;SDS011;39791;53.184;5.486;2023-06-22T10:14:47;10.80;;;7.80;;
53879;SDS011;39791;53.184;5.486;2023-06-22T10:17:12;9.25;;;7.72;;
53879;SDS011;39791;53.184;5.486;2023-06-22T10:19:38;10.90;;;7.68;;
53879;SDS011;39791;53.184;5.486;2023-06-22T10:22:06;13.80;;;7.25;;
53879;SDS011;39791;53.184;5.486;2023-06-22T10:24:31;10.43;;;7.80;;
53879;SDS011;39791;53.184;5.486;2023-06-22T10:26:57;9.93;;;7.15;;
53879;SDS011;39791;53.184;5.486;2023-06-22T10:29:23;9.10;;;7.47;;
53879;SDS011;39791;53.184;5.486;2023-06-22T10:31:48;9.00;;;6.28;;
53879;SDS011;39791;53.184;5.486;2023-06-22T10:34:14;12.73;;;7.03;;
53879;SDS011;39791;53.184;5.486;2023-06-22T10:36:39;14.50;;;7.38;;
53879;SDS011;39791;53.184;5.486;2023-06-22T10:39:05;11.30;;;7.20;;
53879;SDS011;39791;53.184;5.486;2023-06-22T10:41:31;12.07;;;6.57;;
53879;SDS011;39791;53.184;5.486;2023-06-22T10:43:56;9.88;;;8.10;;
53879;SDS011;39791;53.184;5.486;2023-06-22T10:46:24;8.25;;;7.45;;
53879;SDS011;39791;53.184;5.486;2023-06-22T10:48:51;11.20;;;6.65;;
53879;SDS011;39791;53.184;5.486;2023-06-22T10:51:19;8.75;;;7.40;;
53879;SDS011;39791;53.184;5.486;2023-06-22T10:53:45;11.70;;;8.13;;
53879;SDS011;39791;53.184;5.486;2023-06-22T10:56:10;10.35;;;8.60;;
53879;SDS011;39791;53.184;5.486;2023-06-22T10:58:36;10.45;;;8.55;;
53879;SDS011;39791;53.184;5.486;2023-06-22T11:01:01;10.88;;;9.32;;
53879;SDS011;39791;53.184;5.486;2023-06-22T11:03:28;12.45;;;10.90;;
53879;SDS011;39791;53.184;5.486;2023-06-22T11:05:54;10.95;;;9.55;;
53879;SDS011;39791;53.184;5.486;2023-06-22T11:08:19;11.50;;;10.27;;
53879;SDS011;39791;53.184;5.486;2023-06-22T11:10:45;12.85;;;10.18;;
53879;SDS011;39791;53.184;5.486;2023-06-22T11:13:11;10.85;;;8.52;;
53879;SDS011;39791;53.184;5.486;2023-06-22T11:15:36;9.27;;;7.00;;
53879;SDS011;39791;53.184;5.486;2023-06-22T11:18:02;8.60;;;7.28;;
53879;SDS011;39791;53.184;5.486;2023-06-22T11:20:30;7.22;;;6.50;;
53879;SDS011;39791;53.184;5.486;2023-06-22T11:22:56;11.63;;;7.53;;
53879;SDS011;39791;53.184;5.486;2023-06-22T11:25:21;9.75;;;6.78;;
53879;SDS011;39791;53.184;5.486;2023-06-22T11:27:47;8.50;;;6.55;;
53879;SDS011;39791;53.184;5.486;2023-06-22T11:30:12;10.95;;;7.03;;
53879;SDS011;39791;53.184;5.486;2023-06-22T11:32:38;8.82;;;7.47;;
53879;SDS011;39791;53.184;5.486;2023-06-22T11:35:04;11.07;;;7.53;;
53879;SDS011;39791;53.184;5.486;2023-06-22T11:37:29;7.47;;;6.45;;
53879;SDS011;39791;53.184;5.486;2023-06-22T11:39:55;9.90;;;7.38;;
53879;SDS011;39791;53.184;5.486;2023-06-22T11:42:21;6.93;;;6.07;;
53879;SDS011;39791;53.184;5.486;2023-06-22T11:44:48;7.97;;;6.30;;
53879;SDS011;39791;53.184;5.486;2023-06-22T11:47:14;7.88;;;6.57;;
53879;SDS011;39791;53.184;5.486;2023-06-22T11:49:40;9.02;;;6.72;;
53879;SDS011;39791;53.184;5.486;2023-06-22T11:52:06;7.18;;;6.47;;
53879;SDS011;39791;53.184;5.486;2023-06-22T11:54:32;12.32;;;7.10;;
53879;SDS011;39791;53.184;5.486;2023-06-22T11:56:57;9.95;;;8.35;;
53879;SDS011;39791;53.184;5.486;2023-06-22T11:59:23;9.63;;;8.13;;
53879;SDS011;39791;53.184;5.486;2023-06-22T12:01:48;9.80;;;7.20;;
53879;SDS011;39791;53.184;5.486;2023-06-22T12:04:16;11.38;;;7.63;;
53879;SDS011;39791;53.184;5.486;2023-06-22T12:06:41;6.15;;;5.18;;
53879;SDS011;39791;53.184;5.486;2023-06-22T12:09:08;13.85;;;7.63;;
53879;SDS011;39791;53.184;5.486;2023-06-22T12:11:34;11.13;;;6.78;;
53879;SDS011;39791;53.184;5.486;2023-06-22T12:14:00;12.27;;;7.40;;
53879;SDS011;39791;53.184;5.486;2023-06-22T12:16:27;10.13;;;7.00;;
53879;SDS011;39791;53.184;5.486;2023-06-22T12:18:53;8.07;;;6.40;;
53879;SDS011;39791;53.184;5.486;2023-06-22T12:21:19;8.55;;;6.18;;
53879;SDS011;39791;53.184;5.486;2023-06-22T12:23:44;5.85;;;5.15;;
53879;SDS011;39791;53.184;5.486;2023-06-22T12:26:10;10.15;;;5.55;;
53879;SDS011;39791;53.184;5.486;2023-06-22T12:28:35;6.93;;;4.72;;
53879;SDS011;39791;53.184;5.486;2023-06-22T12:31:01;7.28;;;4.70;;
53879;SDS011;39791;53.184;5.486;2023-06-22T12:33:26;6.32;;;4.47;;
53879;SDS011;39791;53.184;5.486;2023-06-22T12:35:52;7.00;;;4.65;;
53879;SDS011;39791;53.184;5.486;2023-06-22T12:38:17;4.90;;;3.72;;
53879;SDS011;39791;53.184;5.486;2023-06-22T12:40:43;6.30;;;3.70;;
53879;SDS011;39791;53.184;5.486;2023-06-22T12:43:09;5.32;;;4.18;;
53879;SDS011;39791;53.184;5.486;2023-06-22T12:45:34;4.63;;;4.10;;
53879;SDS011;39791;53.184;5.486;2023-06-22T12:48:00;4.45;;;3.85;;
53879;SDS011;39791;53.184;5.486;2023-06-22T12:50:26;7.70;;;3.95;;
53879;SDS011;39791;53.184;5.486;2023-06-22T12:52:51;4.03;;;3.63;;
53879;SDS011;39791;53.184;5.486;2023-06-22T12:55:17;4.85;;;3.42;;
53879;SDS011;39791;53.184;5.486;2023-06-22T12:57:43;5.78;;;3.10;;
53879;SDS011;39791;53.184;5.486;2023-06-22T13:00:08;5.68;;;3.40;;
53879;SDS011;39791;53.184;5.486;2023-06-22T13:02:35;3.47;;;3.15;;
53879;SDS011;39791;53.184;5.486;2023-06-22T13:05:01;3.47;;;2.85;;
53879;SDS011;39791;53.184;5.486;2023-06-22T13:07:27;5.55;;;3.20;;
53879;SDS011;39791;53.184;5.486;2023-06-22T13:09:53;3.88;;;2.70;;
53879;SDS011;39791;53.184;5.486;2023-06-22T13:12:19;2.97;;;2.45;;
53879;SDS011;39791;53.184;5.486;2023-06-22T13:14:45;4.63;;;2.58;;
53879;SDS011;39791;53.184;5.486;2023-06-22T13:17:12;3.53;;;2.58;;
53879;SDS011;39791;53.184;5.486;2023-06-22T13:19:38;3.28;;;2.40;;
53879;SDS011;39791;53.184;5.486;2023-06-22T13:22:04;4.40;;;2.53;;
53879;SDS011;39791;53.184;5.486;2023-06-22T13:24:30;3.85;;;2.38;;
53879;SDS011;39791;53.184;5.486;2023-06-22T13:26:56;3.90;;;2.10;;
53879;SDS011;39791;53.184;5.486;2023-06-22T13:29:21;3.15;;;2.30;;
53879;SDS011;39791;53.184;5.486;2023-06-22T13:31:47;3.15;;;2.00;;
53879;SDS011;39791;53.184;5.486;2023-06-22T13:34:12;2.95;;;2.10;;
53879;SDS011;39791;53.184;5.486;2023-06-22T13:36:38;3.80;;;2.10;;
53879;SDS011;39791;53.184;5.486;2023-06-22T13:39:03;2.85;;;1.90;;
53879;SDS011;39791;53.184;5.486;2023-06-22T13:41:29;6.28;;;2.22;;
53879;SDS011;39791;53.184;5.486;2023-06-22T13:43:54;4.47;;;2.10;;
53879;SDS011;39791;53.184;5.486;2023-06-22T13:46:20;3.40;;;2.05;;
53879;SDS011;39791;53.184;5.486;2023-06-22T13:48:46;3.22;;;2.10;;
53879;SDS011;39791;53.184;5.486;2023-06-22T13:51:11;4.75;;;2.03;;
53879;SDS011;39791;53.184;5.486;2023-06-22T13:53:37;2.80;;;2.10;;
53879;SDS011;39791;53.184;5.486;2023-06-22T13:56:03;2.20;;;2.00;;
53879;SDS011;39791;53.184;5.486;2023-06-22T13:58:28;4.38;;;1.90;;
53879;SDS011;39791;53.184;5.486;2023-06-22T14:00:54;3.05;;;1.90;;
53879;SDS011;39791;53.184;5.486;2023-06-22T14:03:20;4.57;;;1.88;;
53879;SDS011;39791;53.184;5.486;2023-06-22T14:05:45;3.97;;;1.85;;
53879;SDS011;39791;53.184;5.486;2023-06-22T14:08:11;2.22;;;1.90;;
53879;SDS011;39791;53.184;5.486;2023-06-22T14:10:37;2.40;;;1.70;;
53879;SDS011;39791;53.184;5.486;2023-06-22T14:13:02;1.85;;;1.75;;
53879;SDS011;39791;53.184;5.486;2023-06-22T14:15:30;2.15;;;1.70;;
53879;SDS011;39791;53.184;5.486;2023-06-22T14:17:57;1.95;;;1.77;;
53879;SDS011;39791;53.184;5.486;2023-06-22T14:20:22;3.95;;;1.98;;
53879;SDS011;39791;53.184;5.486;2023-06-22T14:22:48;5.60;;;1.77;;
53879;SDS011;39791;53.184;5.486;2023-06-22T14:25:13;2.42;;;1.85;;
53879;SDS011;39791;53.184;5.486;2023-06-22T14:27:39;2.38;;;1.80;;
53879;SDS011;39791;53.184;5.486;2023-06-22T14:30:04;2.80;;;1.73;;